• Join FlightAware (Why Join?)
  • Login
  • US Flag 
01:58PM EST


 

Airport Tracker/Info


-or-


 

Live Flight TrackerFlight Track Log ✈ N727NE ✈ 07-Jun-2013 ✈ KMGY - 3W9

Flight Track Log - Related Links

Times and Time Zones

All times are in EDT time to prevent confusion due to time zone crossing. See the N727NE flight status page for this flight to view local times or setup timezone preferences in your user account.

Time Position Orientation Groundspeed Altitude Reporting Facility
EDT Latitude Longitude Course Direction KTS MPH feet Rate Location/Type
02:08PM 39.6742 -84.1656 28° Northeast 114 131 3,300  Level Indianapolis Center
02:10PM 39.7156 -84.1375 28° Northeast 110 127 4,200 600 Climbing Indianapolis Center
02:11PM 39.7408 -84.1175 31° Northeast 116 133 4,800 720 Climbing Indianapolis Center
02:12PM 39.7675 -84.0992 28° Northeast 105 121 5,600 720 Climbing Indianapolis Center
02:13PM 39.7939 -84.0811 28° Northeast 102 117 6,300 600 Climbing Indianapolis Center
02:14PM 39.8206 -84.0628 28° Northeast 105 121 6,900 360 Climbing Indianapolis Center
02:15PM 39.8494 -84.0419 29° Northeast 130 150 7,100 60 Climbing Indianapolis Center
02:15PM 39.8547 -84.0378 31° Northeast 112 129 7,000 -120 Descending Indianapolis Center
02:16PM 39.8897 -84.0158 26° Northeast 122 140 7,000 60 Level Indianapolis Center
02:17PM 39.9267 -83.9922 26° Northeast 131 151 7,200  Climbing Indianapolis Center
02:18PM 39.9567 -83.9711 28° Northeast 134 154 7,000 -60 Descending Indianapolis Center
02:19PM 39.9931 -83.9464 27° Northeast 138 159 7,100  Climbing Indianapolis Center
02:20PM 40.0242 -83.9231 30° Northeast 138 159 7,100  Level Indianapolis Center
02:21PM 40.0572 -83.9000 28° Northeast 135 155 7,100  Level Indianapolis Center
02:22PM 40.0947 -83.8750 27° Northeast 134 154 7,100 -60 Level Indianapolis Center
02:23PM 40.1189 -83.8589 27° Northeast 136 157 7,000 -120 Descending Indianapolis Center
02:23PM 40.1314 -83.8483 33° Northeast 135 155 7,000 60 Level Indianapolis Center
02:24PM 40.1647 -83.8261 27° Northeast 134 154 7,100  Climbing Indianapolis Center
02:25PM 40.1986 -83.8033 27° Northeast 135 155 7,100  Level Indianapolis Center
02:26PM 40.2317 -83.7808 27° Northeast 134 154 7,100  Level Indianapolis Center
02:27PM 40.2653 -83.7578 28° Northeast 134 154 7,100 -120 Level Indianapolis Center
02:28PM 40.2986 -83.7333 29° Northeast 135 155 6,900 -60 Descending Indianapolis Center
02:29PM 40.3314 -83.7100 28° Northeast 134 154 7,000 60 Climbing Indianapolis Center
02:30PM 40.3647 -83.6878 27° Northeast 133 153 7,100  Climbing Indianapolis Center
02:31PM 40.3989 -83.6642 28° Northeast 135 155 7,000 -60 Descending Indianapolis Center
02:32PM 40.4333 -83.6406 28° Northeast 137 158 7,000 -60 Level Indianapolis Center
02:33PM 40.4733 -83.6150 26° Northeast 136 157 6,900 -60 Descending Indianapolis Center
02:34PM 40.5067 -83.5897 30° Northeast 136 157 6,900  Level Indianapolis Center
02:35PM 40.5403 -83.5642 30° Northeast 137 158 7,000 60 Climbing Indianapolis Center
02:36PM 40.5750 -83.5400 28° Northeast 139 160 7,100  Climbing Indianapolis Center
02:37PM 40.6083 -83.5178 27° Northeast 136 157 7,100  Level Indianapolis Center
02:39PM 40.6422 -83.4964 26° Northeast 135 155 7,200  Climbing Indianapolis Center
02:40PM 40.6767 -83.4722 28° Northeast 136 157 7,200 -60 Level Indianapolis Center
02:41PM 40.7119 -83.4508 25° Northeast 137 158 7,100 -60 Descending Indianapolis Center
02:42PM 40.7508 -83.4239 28° Northeast 136 157 7,100  Level Indianapolis Center
02:43PM 40.7839 -83.3978 31° Northeast 136 157 7,100  Level Indianapolis Center
02:44PM 40.8181 -83.3744 27° Northeast 136 157 7,100 -60 Level Indianapolis Center
02:45PM 40.8550 -83.3522 24° Northeast 140 161 7,000 -60 Descending Indianapolis Center
02:46PM 40.8875 -83.3325 25° Northeast 136 157 7,000  Level Indianapolis Center
02:47PM 40.9264 -83.3181 16° North 136 157 7,000  Level Indianapolis Center